sensor_id;sensor_type;location;lat;lon;timestamp;P1;durP1;ratioP1;P2;durP2;ratioP2
16820;SDS011;8527;49.740;6.604;2022-12-24T00:01:59;34.15;;;4.20;;
16820;SDS011;8527;49.740;6.604;2022-12-24T00:06:58;31.17;;;4.18;;
16820;SDS011;8527;49.740;6.604;2022-12-24T00:11:57;24.80;;;4.70;;
16820;SDS011;8527;49.740;6.604;2022-12-24T00:17:05;25.52;;;4.13;;
16820;SDS011;8527;49.740;6.604;2022-12-24T00:22:04;23.92;;;3.63;;
16820;SDS011;8527;49.740;6.604;2022-12-24T00:27:02;32.03;;;5.43;;
16820;SDS011;8527;49.740;6.604;2022-12-24T00:32:01;20.33;;;2.83;;
16820;SDS011;8527;49.740;6.604;2022-12-24T00:37:05;30.80;;;5.35;;
16820;SDS011;8527;49.740;6.604;2022-12-24T00:42:04;25.77;;;5.00;;
16820;SDS011;8527;49.740;6.604;2022-12-24T00:47:02;26.30;;;4.60;;
16820;SDS011;8527;49.740;6.604;2022-12-24T00:52:00;24.25;;;4.78;;
16820;SDS011;8527;49.740;6.604;2022-12-24T00:57:02;26.95;;;3.80;;
16820;SDS011;8527;49.740;6.604;2022-12-24T01:02:03;24.88;;;3.60;;
16820;SDS011;8527;49.740;6.604;2022-12-24T01:07:02;28.27;;;4.43;;
16820;SDS011;8527;49.740;6.604;2022-12-24T01:12:03;18.83;;;3.47;;
16820;SDS011;8527;49.740;6.604;2022-12-24T01:17:05;28.35;;;4.13;;
16820;SDS011;8527;49.740;6.604;2022-12-24T01:22:03;28.67;;;4.18;;
16820;SDS011;8527;49.740;6.604;2022-12-24T01:27:05;26.40;;;4.00;;
16820;SDS011;8527;49.740;6.604;2022-12-24T01:32:03;26.88;;;3.80;;
16820;SDS011;8527;49.740;6.604;2022-12-24T01:37:02;30.83;;;4.40;;
16820;SDS011;8527;49.740;6.604;2022-12-24T01:42:00;26.33;;;3.90;;
16820;SDS011;8527;49.740;6.604;2022-12-24T01:47:25;25.25;;;3.60;;
16820;SDS011;8527;49.740;6.604;2022-12-24T01:52:30;29.30;;;4.15;;
16820;SDS011;8527;49.740;6.604;2022-12-24T01:57:35;27.73;;;4.68;;
16820;SDS011;8527;49.740;6.604;2022-12-24T02:02:40;24.38;;;3.80;;
16820;SDS011;8527;49.740;6.604;2022-12-24T02:07:44;21.95;;;4.00;;
16820;SDS011;8527;49.740;6.604;2022-12-24T02:12:46;22.88;;;4.43;;
16820;SDS011;8527;49.740;6.604;2022-12-24T02:17:48;27.42;;;4.40;;
16820;SDS011;8527;49.740;6.604;2022-12-24T02:23:10;21.98;;;3.63;;
16820;SDS011;8527;49.740;6.604;2022-12-24T02:28:41;21.08;;;3.97;;
16820;SDS011;8527;49.740;6.604;2022-12-24T02:33:56;26.23;;;4.45;;
16820;SDS011;8527;49.740;6.604;2022-12-24T02:39:02;32.22;;;3.78;;
16820;SDS011;8527;49.740;6.604;2022-12-24T02:44:04;28.58;;;4.10;;
16820;SDS011;8527;49.740;6.604;2022-12-24T02:49:12;46.05;;;4.63;;
16820;SDS011;8527;49.740;6.604;2022-12-24T02:54:11;23.83;;;4.00;;
16820;SDS011;8527;49.740;6.604;2022-12-24T02:59:37;30.77;;;4.00;;
16820;SDS011;8527;49.740;6.604;2022-12-24T03:04:54;35.97;;;4.45;;
16820;SDS011;8527;49.740;6.604;2022-12-24T03:10:12;25.75;;;3.75;;
16820;SDS011;8527;49.740;6.604;2022-12-24T03:15:24;23.85;;;3.60;;
16820;SDS011;8527;49.740;6.604;2022-12-24T03:20:30;32.03;;;3.80;;
16820;SDS011;8527;49.740;6.604;2022-12-24T03:25:45;27.05;;;3.65;;
16820;SDS011;8527;49.740;6.604;2022-12-24T03:30:44;32.50;;;4.22;;
16820;SDS011;8527;49.740;6.604;2022-12-24T03:35:50;33.47;;;4.40;;
16820;SDS011;8527;49.740;6.604;2022-12-24T03:40:52;33.90;;;3.95;;
16820;SDS011;8527;49.740;6.604;2022-12-24T03:45:50;27.52;;;4.25;;
16820;SDS011;8527;49.740;6.604;2022-12-24T03:50:51;30.13;;;3.92;;
16820;SDS011;8527;49.740;6.604;2022-12-24T03:55:50;28.88;;;3.78;;
16820;SDS011;8527;49.740;6.604;2022-12-24T04:00:57;31.23;;;3.78;;
16820;SDS011;8527;49.740;6.604;2022-12-24T04:06:03;25.17;;;3.70;;
16820;SDS011;8527;49.740;6.604;2022-12-24T04:11:06;30.05;;;4.32;;
16820;SDS011;8527;49.740;6.604;2022-12-24T04:16:08;30.15;;;3.70;;
16820;SDS011;8527;49.740;6.604;2022-12-24T04:21:19;22.42;;;3.65;;
16820;SDS011;8527;49.740;6.604;2022-12-24T04:26:26;22.40;;;4.05;;
16820;SDS011;8527;49.740;6.604;2022-12-24T04:31:27;22.77;;;3.13;;
16820;SDS011;8527;49.740;6.604;2022-12-24T04:36:39;20.42;;;3.42;;
16820;SDS011;8527;49.740;6.604;2022-12-24T04:41:38;34.80;;;3.95;;
16820;SDS011;8527;49.740;6.604;2022-12-24T04:46:40;29.27;;;4.28;;
16820;SDS011;8527;49.740;6.604;2022-12-24T04:51:41;41.65;;;6.00;;
16820;SDS011;8527;49.740;6.604;2022-12-24T04:56:42;27.42;;;4.03;;
16820;SDS011;8527;49.740;6.604;2022-12-24T05:01:43;28.95;;;4.40;;
16820;SDS011;8527;49.740;6.604;2022-12-24T05:06:48;46.03;;;5.75;;
16820;SDS011;8527;49.740;6.604;2022-12-24T05:11:52;40.40;;;5.38;;
16820;SDS011;8527;49.740;6.604;2022-12-24T05:16:56;32.63;;;5.03;;
16820;SDS011;8527;49.740;6.604;2022-12-24T05:22:12;31.87;;;4.23;;
16820;SDS011;8527;49.740;6.604;2022-12-24T05:27:27;36.42;;;5.07;;
16820;SDS011;8527;49.740;6.604;2022-12-24T05:32:30;26.75;;;5.05;;
16820;SDS011;8527;49.740;6.604;2022-12-24T05:37:31;27.40;;;4.93;;
16820;SDS011;8527;49.740;6.604;2022-12-24T05:42:32;33.88;;;5.07;;
16820;SDS011;8527;49.740;6.604;2022-12-24T05:47:33;34.75;;;4.53;;
16820;SDS011;8527;49.740;6.604;2022-12-24T05:52:34;37.58;;;5.00;;
16820;SDS011;8527;49.740;6.604;2022-12-24T05:57:32;35.17;;;4.97;;
16820;SDS011;8527;49.740;6.604;2022-12-24T06:02:30;46.70;;;5.78;;
16820;SDS011;8527;49.740;6.604;2022-12-24T06:07:37;37.65;;;4.32;;
16820;SDS011;8527;49.740;6.604;2022-12-24T06:12:38;31.67;;;5.22;;
16820;SDS011;8527;49.740;6.604;2022-12-24T06:17:36;38.65;;;7.13;;
16820;SDS011;8527;49.740;6.604;2022-12-24T06:22:39;44.40;;;5.57;;
16820;SDS011;8527;49.740;6.604;2022-12-24T06:27:38;36.42;;;5.25;;
16820;SDS011;8527;49.740;6.604;2022-12-24T06:32:36;41.58;;;7.60;;
16820;SDS011;8527;49.740;6.604;2022-12-24T06:37:37;48.17;;;5.88;;
16820;SDS011;8527;49.740;6.604;2022-12-24T06:42:38;40.55;;;6.00;;
16820;SDS011;8527;49.740;6.604;2022-12-24T06:47:44;50.67;;;8.02;;
16820;SDS011;8527;49.740;6.604;2022-12-24T06:52:46;57.17;;;5.60;;
16820;SDS011;8527;49.740;6.604;2022-12-24T06:57:44;47.00;;;5.63;;
16820;SDS011;8527;49.740;6.604;2022-12-24T07:02:43;54.47;;;7.80;;
16820;SDS011;8527;49.740;6.604;2022-12-24T07:07:42;67.68;;;9.38;;
16820;SDS011;8527;49.740;6.604;2022-12-24T07:12:44;56.65;;;5.85;;
16820;SDS011;8527;49.740;6.604;2022-12-24T07:17:43;49.00;;;5.40;;
16820;SDS011;8527;49.740;6.604;2022-12-24T07:22:46;59.88;;;6.72;;
16820;SDS011;8527;49.740;6.604;2022-12-24T07:27:45;39.85;;;5.75;;
16820;SDS011;8527;49.740;6.604;2022-12-24T07:32:51;46.40;;;5.60;;
16820;SDS011;8527;49.740;6.604;2022-12-24T07:37:52;43.13;;;5.80;;
16820;SDS011;8527;49.740;6.604;2022-12-24T07:42:50;53.17;;;8.10;;
16820;SDS011;8527;49.740;6.604;2022-12-24T07:47:49;57.53;;;7.78;;
16820;SDS011;8527;49.740;6.604;2022-12-24T07:52:47;40.67;;;7.47;;
16820;SDS011;8527;49.740;6.604;2022-12-24T07:57:48;41.00;;;6.75;;
16820;SDS011;8527;49.740;6.604;2022-12-24T08:02:46;33.78;;;5.00;;
16820;SDS011;8527;49.740;6.604;2022-12-24T08:07:48;38.08;;;5.72;;
16820;SDS011;8527;49.740;6.604;2022-12-24T08:12:58;34.40;;;5.63;;
16820;SDS011;8527;49.740;6.604;2022-12-24T08:17:59;33.47;;;6.32;;
16820;SDS011;8527;49.740;6.604;2022-12-24T08:23:07;40.42;;;5.90;;
16820;SDS011;8527;49.740;6.604;2022-12-24T08:28:08;52.03;;;10.32;;
16820;SDS011;8527;49.740;6.604;2022-12-24T08:33:10;29.42;;;4.95;;
16820;SDS011;8527;49.740;6.604;2022-12-24T08:38:08;40.95;;;6.43;;
16820;SDS011;8527;49.740;6.604;2022-12-24T08:43:13;43.53;;;5.30;;
16820;SDS011;8527;49.740;6.604;2022-12-24T08:48:19;32.55;;;4.60;;
16820;SDS011;8527;49.740;6.604;2022-12-24T08:53:20;47.75;;;6.28;;
16820;SDS011;8527;49.740;6.604;2022-12-24T08:58:22;51.33;;;6.10;;
16820;SDS011;8527;49.740;6.604;2022-12-24T09:03:28;49.58;;;5.72;;
16820;SDS011;8527;49.740;6.604;2022-12-24T09:08:26;48.28;;;6.50;;
16820;SDS011;8527;49.740;6.604;2022-12-24T09:13:28;34.80;;;6.05;;
16820;SDS011;8527;49.740;6.604;2022-12-24T09:18:26;46.03;;;5.45;;
16820;SDS011;8527;49.740;6.604;2022-12-24T09:23:27;55.17;;;6.68;;
16820;SDS011;8527;49.740;6.604;2022-12-24T09:28:36;50.67;;;7.50;;
16820;SDS011;8527;49.740;6.604;2022-12-24T09:33:41;39.63;;;6.68;;
16820;SDS011;8527;49.740;6.604;2022-12-24T09:38:41;61.58;;;7.00;;
16820;SDS011;8527;49.740;6.604;2022-12-24T09:43:45;55.83;;;5.97;;
16820;SDS011;8527;49.740;6.604;2022-12-24T09:48:52;59.15;;;7.38;;
16820;SDS011;8527;49.740;6.604;2022-12-24T09:53:56;57.58;;;6.70;;
16820;SDS011;8527;49.740;6.604;2022-12-24T09:59:03;39.78;;;5.82;;
16820;SDS011;8527;49.740;6.604;2022-12-24T10:04:03;50.55;;;6.55;;
16820;SDS011;8527;49.740;6.604;2022-12-24T10:09:09;49.78;;;6.30;;
16820;SDS011;8527;49.740;6.604;2022-12-24T10:14:29;54.75;;;7.22;;
16820;SDS011;8527;49.740;6.604;2022-12-24T10:19:46;49.35;;;6.75;;
16820;SDS011;8527;49.740;6.604;2022-12-24T10:24:50;47.53;;;6.32;;
16820;SDS011;8527;49.740;6.604;2022-12-24T10:30:00;56.28;;;7.60;;
16820;SDS011;8527;49.740;6.604;2022-12-24T10:35:05;57.90;;;7.15;;
16820;SDS011;8527;49.740;6.604;2022-12-24T10:40:19;56.38;;;6.00;;
16820;SDS011;8527;49.740;6.604;2022-12-24T10:45:29;58.13;;;7.15;;
16820;SDS011;8527;49.740;6.604;2022-12-24T10:50:38;55.10;;;6.93;;
16820;SDS011;8527;49.740;6.604;2022-12-24T10:55:39;50.95;;;7.53;;
16820;SDS011;8527;49.740;6.604;2022-12-24T11:00:41;43.67;;;6.28;;
16820;SDS011;8527;49.740;6.604;2022-12-24T11:05:58;53.35;;;5.97;;
16820;SDS011;8527;49.740;6.604;2022-12-24T11:10:59;45.42;;;6.63;;
16820;SDS011;8527;49.740;6.604;2022-12-24T11:16:03;54.53;;;6.03;;
16820;SDS011;8527;49.740;6.604;2022-12-24T11:21:04;49.63;;;6.03;;
16820;SDS011;8527;49.740;6.604;2022-12-24T11:26:02;50.17;;;6.50;;
16820;SDS011;8527;49.740;6.604;2022-12-24T11:31:05;58.78;;;10.45;;
16820;SDS011;8527;49.740;6.604;2022-12-24T11:36:22;57.80;;;8.07;;
16820;SDS011;8527;49.740;6.604;2022-12-24T11:41:22;52.42;;;5.95;;
16820;SDS011;8527;49.740;6.604;2022-12-24T11:46:37;42.45;;;6.43;;
16820;SDS011;8527;49.740;6.604;2022-12-24T11:51:37;45.72;;;6.10;;
16820;SDS011;8527;49.740;6.604;2022-12-24T11:56:37;39.47;;;6.30;;
16820;SDS011;8527;49.740;6.604;2022-12-24T12:01:47;50.75;;;6.55;;
16820;SDS011;8527;49.740;6.604;2022-12-24T12:06:53;52.03;;;6.20;;
16820;SDS011;8527;49.740;6.604;2022-12-24T12:11:55;47.85;;;7.30;;
16820;SDS011;8527;49.740;6.604;2022-12-24T12:17:02;50.53;;;7.00;;
16820;SDS011;8527;49.740;6.604;2022-12-24T12:22:13;54.22;;;6.85;;
16820;SDS011;8527;49.740;6.604;2022-12-24T12:27:22;48.22;;;6.30;;
16820;SDS011;8527;49.740;6.604;2022-12-24T12:32:34;43.70;;;7.10;;
16820;SDS011;8527;49.740;6.604;2022-12-24T12:37:42;36.08;;;5.75;;
16820;SDS011;8527;49.740;6.604;2022-12-24T12:42:49;38.45;;;5.70;;
16820;SDS011;8527;49.740;6.604;2022-12-24T12:48:04;38.30;;;6.00;;
16820;SDS011;8527;49.740;6.604;2022-12-24T12:53:29;32.95;;;4.68;;
16820;SDS011;8527;49.740;6.604;2022-12-24T12:58:40;43.75;;;6.70;;
16820;SDS011;8527;49.740;6.604;2022-12-24T13:09:19;30.58;;;5.97;;
16820;SDS011;8527;49.740;6.604;2022-12-24T13:14:39;39.70;;;6.00;;
16820;SDS011;8527;49.740;6.604;2022-12-24T13:20:02;26.70;;;5.80;;
16820;SDS011;8527;49.740;6.604;2022-12-24T13:25:20;29.25;;;7.00;;
16820;SDS011;8527;49.740;6.604;2022-12-24T13:30:34;41.65;;;7.13;;
16820;SDS011;8527;49.740;6.604;2022-12-24T13:35:35;20.35;;;4.57;;
16820;SDS011;8527;49.740;6.604;2022-12-24T13:40:38;16.85;;;4.13;;
16820;SDS011;8527;49.740;6.604;2022-12-24T13:45:40;15.88;;;4.28;;
16820;SDS011;8527;49.740;6.604;2022-12-24T13:50:42;20.40;;;4.57;;
16820;SDS011;8527;49.740;6.604;2022-12-24T13:55:50;16.83;;;3.80;;
16820;SDS011;8527;49.740;6.604;2022-12-24T14:00:52;23.60;;;7.57;;
16820;SDS011;8527;49.740;6.604;2022-12-24T14:05:54;26.92;;;5.25;;
16820;SDS011;8527;49.740;6.604;2022-12-24T14:11:01;33.72;;;4.57;;
16820;SDS011;8527;49.740;6.604;2022-12-24T14:16:06;48.95;;;13.57;;
16820;SDS011;8527;49.740;6.604;2022-12-24T14:21:14;34.33;;;9.13;;
16820;SDS011;8527;49.740;6.604;2022-12-24T14:26:20;33.13;;;6.93;;
16820;SDS011;8527;49.740;6.604;2022-12-24T14:31:22;37.97;;;6.82;;
16820;SDS011;8527;49.740;6.604;2022-12-24T14:36:21;37.38;;;7.65;;
16820;SDS011;8527;49.740;6.604;2022-12-24T14:41:32;35.88;;;8.82;;
16820;SDS011;8527;49.740;6.604;2022-12-24T14:46:41;28.35;;;6.70;;
16820;SDS011;8527;49.740;6.604;2022-12-24T14:51:50;36.28;;;6.30;;
16820;SDS011;8527;49.740;6.604;2022-12-24T15:02:23;41.80;;;6.93;;
16820;SDS011;8527;49.740;6.604;2022-12-24T15:07:26;25.17;;;6.93;;
16820;SDS011;8527;49.740;6.604;2022-12-24T15:12:26;51.67;;;11.63;;
16820;SDS011;8527;49.740;6.604;2022-12-24T15:22:25;33.65;;;9.05;;
16820;SDS011;8527;49.740;6.604;2022-12-24T15:27:31;26.95;;;6.32;;
16820;SDS011;8527;49.740;6.604;2022-12-24T15:32:38;24.10;;;5.53;;
16820;SDS011;8527;49.740;6.604;2022-12-24T15:37:40;33.70;;;8.63;;
16820;SDS011;8527;49.740;6.604;2022-12-24T15:42:42;32.85;;;12.32;;
16820;SDS011;8527;49.740;6.604;2022-12-24T15:47:42;30.70;;;10.48;;
16820;SDS011;8527;49.740;6.604;2022-12-24T15:52:43;49.00;;;13.48;;
16820;SDS011;8527;49.740;6.604;2022-12-24T15:57:46;36.47;;;11.13;;
16820;SDS011;8527;49.740;6.604;2022-12-24T16:02:44;33.38;;;10.45;;
16820;SDS011;8527;49.740;6.604;2022-12-24T16:07:46;55.97;;;13.82;;
16820;SDS011;8527;49.740;6.604;2022-12-24T16:13:16;37.60;;;11.48;;
16820;SDS011;8527;49.740;6.604;2022-12-24T16:18:17;31.23;;;9.00;;
16820;SDS011;8527;49.740;6.604;2022-12-24T16:23:20;32.88;;;8.23;;
16820;SDS011;8527;49.740;6.604;2022-12-24T16:28:23;28.33;;;7.72;;
16820;SDS011;8527;49.740;6.604;2022-12-24T16:33:26;22.92;;;7.15;;
16820;SDS011;8527;49.740;6.604;2022-12-24T16:38:24;32.85;;;9.25;;
16820;SDS011;8527;49.740;6.604;2022-12-24T16:43:48;25.92;;;9.40;;
16820;SDS011;8527;49.740;6.604;2022-12-24T16:48:47;36.50;;;13.77;;
16820;SDS011;8527;49.740;6.604;2022-12-24T16:53:49;34.58;;;12.43;;
16820;SDS011;8527;49.740;6.604;2022-12-24T16:58:50;46.15;;;15.95;;
16820;SDS011;8527;49.740;6.604;2022-12-24T17:03:48;33.00;;;10.18;;
16820;SDS011;8527;49.740;6.604;2022-12-24T17:08:47;24.83;;;7.82;;
16820;SDS011;8527;49.740;6.604;2022-12-24T17:13:45;33.15;;;9.48;;
16820;SDS011;8527;49.740;6.604;2022-12-24T17:18:46;33.33;;;7.82;;
16820;SDS011;8527;49.740;6.604;2022-12-24T17:33:52;28.08;;;8.07;;
16820;SDS011;8527;49.740;6.604;2022-12-24T17:38:50;40.95;;;8.90;;
16820;SDS011;8527;49.740;6.604;2022-12-24T17:43:49;35.05;;;8.35;;
16820;SDS011;8527;49.740;6.604;2022-12-24T17:48:47;40.47;;;7.38;;
16820;SDS011;8527;49.740;6.604;2022-12-24T17:53:55;27.52;;;7.90;;
16820;SDS011;8527;49.740;6.604;2022-12-24T17:58:56;30.25;;;6.95;;
16820;SDS011;8527;49.740;6.604;2022-12-24T18:03:58;29.25;;;7.95;;
16820;SDS011;8527;49.740;6.604;2022-12-24T18:09:06;32.80;;;8.02;;
16820;SDS011;8527;49.740;6.604;2022-12-24T18:14:09;31.38;;;7.88;;
16820;SDS011;8527;49.740;6.604;2022-12-24T18:19:11;29.85;;;7.72;;
16820;SDS011;8527;49.740;6.604;2022-12-24T18:24:14;28.08;;;8.25;;
16820;SDS011;8527;49.740;6.604;2022-12-24T18:29:17;25.42;;;7.10;;
16820;SDS011;8527;49.740;6.604;2022-12-24T18:34:20;28.23;;;6.80;;
16820;SDS011;8527;49.740;6.604;2022-12-24T18:39:21;33.08;;;5.72;;
16820;SDS011;8527;49.740;6.604;2022-12-24T18:44:19;28.52;;;5.47;;
16820;SDS011;8527;49.740;6.604;2022-12-24T18:49:18;29.48;;;7.72;;
16820;SDS011;8527;49.740;6.604;2022-12-24T18:54:23;32.75;;;7.57;;
16820;SDS011;8527;49.740;6.604;2022-12-24T18:59:21;37.17;;;11.68;;
16820;SDS011;8527;49.740;6.604;2022-12-24T19:04:20;38.13;;;10.13;;
16820;SDS011;8527;49.740;6.604;2022-12-24T19:09:23;24.95;;;9.45;;
16820;SDS011;8527;49.740;6.604;2022-12-24T19:14:24;39.47;;;14.68;;
16820;SDS011;8527;49.740;6.604;2022-12-24T19:19:28;37.38;;;14.60;;
16820;SDS011;8527;49.740;6.604;2022-12-24T19:24:29;36.78;;;12.48;;
16820;SDS011;8527;49.740;6.604;2022-12-24T19:29:28;27.30;;;8.38;;
16820;SDS011;8527;49.740;6.604;2022-12-24T19:34:29;17.83;;;5.63;;
16820;SDS011;8527;49.740;6.604;2022-12-24T19:39:30;29.23;;;5.13;;
16820;SDS011;8527;49.740;6.604;2022-12-24T19:44:29;34.17;;;7.22;;
16820;SDS011;8527;49.740;6.604;2022-12-24T19:49:28;23.92;;;5.32;;
16820;SDS011;8527;49.740;6.604;2022-12-24T19:54:36;33.65;;;9.00;;
16820;SDS011;8527;49.740;6.604;2022-12-24T19:59:38;38.90;;;13.50;;
16820;SDS011;8527;49.740;6.604;2022-12-24T20:04:39;51.30;;;12.90;;
16820;SDS011;8527;49.740;6.604;2022-12-24T20:09:43;35.20;;;11.27;;
16820;SDS011;8527;49.740;6.604;2022-12-24T20:14:45;30.55;;;10.82;;
16820;SDS011;8527;49.740;6.604;2022-12-24T20:19:47;40.15;;;12.02;;
16820;SDS011;8527;49.740;6.604;2022-12-24T20:24:48;37.03;;;9.60;;
16820;SDS011;8527;49.740;6.604;2022-12-24T20:29:49;57.70;;;17.58;;
16820;SDS011;8527;49.740;6.604;2022-12-24T20:34:47;39.20;;;10.40;;
16820;SDS011;8527;49.740;6.604;2022-12-24T20:39:52;36.35;;;10.13;;
16820;SDS011;8527;49.740;6.604;2022-12-24T20:44:50;35.38;;;10.43;;
16820;SDS011;8527;49.740;6.604;2022-12-24T20:49:48;45.28;;;11.25;;
16820;SDS011;8527;49.740;6.604;2022-12-24T20:54:52;31.60;;;9.13;;
16820;SDS011;8527;49.740;6.604;2022-12-24T20:59:53;31.05;;;9.70;;
16820;SDS011;8527;49.740;6.604;2022-12-24T21:04:52;44.70;;;6.95;;
16820;SDS011;8527;49.740;6.604;2022-12-24T21:09:53;27.65;;;7.90;;
16820;SDS011;8527;49.740;6.604;2022-12-24T21:14:54;24.58;;;7.72;;
16820;SDS011;8527;49.740;6.604;2022-12-24T21:19:54;40.38;;;13.18;;
16820;SDS011;8527;49.740;6.604;2022-12-24T21:25:00;45.00;;;14.38;;
16820;SDS011;8527;49.740;6.604;2022-12-24T21:29:58;31.88;;;7.28;;
16820;SDS011;8527;49.740;6.604;2022-12-24T21:34:57;41.60;;;10.27;;
16820;SDS011;8527;49.740;6.604;2022-12-24T21:39:56;34.22;;;7.03;;
16820;SDS011;8527;49.740;6.604;2022-12-24T21:44:57;38.13;;;11.18;;
16820;SDS011;8527;49.740;6.604;2022-12-24T21:49:56;38.33;;;11.38;;
16820;SDS011;8527;49.740;6.604;2022-12-24T21:55:09;34.10;;;9.38;;
16820;SDS011;8527;49.740;6.604;2022-12-24T22:00:12;34.35;;;7.45;;
16820;SDS011;8527;49.740;6.604;2022-12-24T22:05:21;28.10;;;6.40;;
16820;SDS011;8527;49.740;6.604;2022-12-24T22:10:20;33.65;;;8.32;;
16820;SDS011;8527;49.740;6.604;2022-12-24T22:15:41;33.08;;;9.07;;
16820;SDS011;8527;49.740;6.604;2022-12-24T22:20:41;39.47;;;8.43;;
16820;SDS011;8527;49.740;6.604;2022-12-24T22:25:41;40.00;;;8.95;;
16820;SDS011;8527;49.740;6.604;2022-12-24T22:30:48;39.80;;;9.25;;
16820;SDS011;8527;49.740;6.604;2022-12-24T22:35:49;35.75;;;6.30;;
16820;SDS011;8527;49.740;6.604;2022-12-24T22:40:53;34.05;;;7.22;;
16820;SDS011;8527;49.740;6.604;2022-12-24T22:45:54;33.25;;;7.70;;
16820;SDS011;8527;49.740;6.604;2022-12-24T22:50:53;31.35;;;6.85;;
16820;SDS011;8527;49.740;6.604;2022-12-24T22:55:54;28.95;;;7.93;;
16820;SDS011;8527;49.740;6.604;2022-12-24T23:00:56;54.95;;;12.05;;
16820;SDS011;8527;49.740;6.604;2022-12-24T23:05:55;38.70;;;9.20;;
16820;SDS011;8527;49.740;6.604;2022-12-24T23:11:02;60.08;;;12.43;;
16820;SDS011;8527;49.740;6.604;2022-12-24T23:16:05;35.40;;;8.07;;
16820;SDS011;8527;49.740;6.604;2022-12-24T23:21:04;31.90;;;6.55;;
16820;SDS011;8527;49.740;6.604;2022-12-24T23:26:04;45.08;;;5.22;;
16820;SDS011;8527;49.740;6.604;2022-12-24T23:31:08;30.67;;;7.03;;
16820;SDS011;8527;49.740;6.604;2022-12-24T23:36:10;45.80;;;9.63;;
16820;SDS011;8527;49.740;6.604;2022-12-24T23:41:09;42.80;;;7.05;;
16820;SDS011;8527;49.740;6.604;2022-12-24T23:46:12;41.40;;;8.07;;
16820;SDS011;8527;49.740;6.604;2022-12-24T23:51:13;38.40;;;7.60;;
16820;SDS011;8527;49.740;6.604;2022-12-24T23:56:13;46.20;;;12.27;;
